This is the latest recevied weather packets stored in our database for station/object WP4PW. If no packets are shown the sender has not sent any weather packets the latest 10 day(s).
| Time | Temp. | Humidity | Pressure | Rain* | Wind** | Luminosity | Snow |
|---|---|---|---|---|---|---|---|
| 1777656095 | 30° C | 78% | 1018.8 hPa | 0 mm | - | 810 W/m² | - |
| 1777655791 | 30° C | 77% | 1018.8 hPa | 0 mm | - | 753 W/m² | - |
| 1777655488 | 30° C | 79% | 1018.8 hPa | 0 mm | - | 666 W/m² | - |
| 1777655185 | 29.44° C | 79% | 1019 hPa | 0 mm | - | 699 W/m² | - |
| 1777654881 | 30° C | 78% | 1019 hPa | 0 mm | - | 786 W/m² | - |
| 1777654579 | 30° C | 78% | 1019.3 hPa | 0 mm | - | 725 W/m² | - |
| 1777654276 | 30° C | 78% | 1019.2 hPa | 0 mm | - | 875 W/m² | - |
| 1777653974 | 30° C | 79% | 1019.1 hPa | 0 mm | - | 863 W/m² | - |
| 1777653665 | 30.56° C | 79% | 1019.4 hPa | 0 mm | - | 802 W/m² | - |
| 1777653361 | 30° C | 80% | 1019.4 hPa | 0 mm | - | 878 W/m² | - |
| 1777653059 | 31.11° C | 74% | 1019.5 hPa | 0 mm | - | 640 W/m² | - |
| 1777652755 | 30.56° C | 76% | 1019.4 hPa | 0 mm | - | 888 W/m² | - |
| 1777652452 | 29.44° C | 79% | 1019.6 hPa | 0 mm | - | 899 W/m² | - |
| 1777652149 | 30.56° C | 77% | 1019.4 hPa | 0 mm | - | 853 W/m² | - |
| 1777651846 | 30.56° C | 77% | 1019.5 hPa | 0 mm | - | 778 W/m² | - |
| 1777651542 | 30° C | 80% | 1019.5 hPa | 0 mm | - | 752 W/m² | - |
| 1777651239 | 29.44° C | 80% | 1019.6 hPa | 0 mm | - | 809 W/m² | - |
| 1777650935 | 30° C | 80% | 1019.6 hPa | 0 mm | - | 858 W/m² | - |
| 1777650633 | 30° C | 80% | 1019.7 hPa | 0 mm | - | 921 W/m² | - |
| 1777650331 | 30° C | 79% | 1019.5 hPa | 0 mm | - | 856 W/m² | - |
| 1777650027 | 30° C | 78% | 1019.6 hPa | 0 mm | - | 856 W/m² | - |
| 1777649725 | 29.44° C | 79% | 1019.7 hPa | 0 mm | - | 725 W/m² | - |
| 1777649421 | 30° C | 78% | 1019.6 hPa | 0 mm | - | 723 W/m² | - |
| 1777649118 | 30° C | 79% | 1019.6 hPa | 0 mm | - | 681 W/m² | - |
| 1777648815 | 29.44° C | 80% | 1019.6 hPa | 0 mm | - | 702 W/m² | - |
* Rain latest hour (hover to see other rain measurements)
** Current wind speed in m/s (hover to see current wind gust speed)